sensor_id;sensor_type;location;lat;lon;timestamp;temperature;humidity
66035;HTU21D;52805;51.074;5.842;2023-09-12T00:01:10;22.65;70.14
66035;HTU21D;52805;51.074;5.842;2023-09-12T00:03:35;22.65;70.87
66035;HTU21D;52805;51.074;5.842;2023-09-12T00:06:02;22.63;71.76
66035;HTU21D;52805;51.074;5.842;2023-09-12T00:08:29;22.61;72.47
66035;HTU21D;52805;51.074;5.842;2023-09-12T00:11:03;22.60;73.11
66035;HTU21D;52805;51.074;5.842;2023-09-12T00:13:30;22.58;74.51
66035;HTU21D;52805;51.074;5.842;2023-09-12T00:15:57;22.58;75.11
66035;HTU21D;52805;51.074;5.842;2023-09-12T00:18:23;22.55;76.38
66035;HTU21D;52805;51.074;5.842;2023-09-12T00:20:50;22.57;77.27
66035;HTU21D;52805;51.074;5.842;2023-09-12T00:23:16;22.58;77.18
66035;HTU21D;52805;51.074;5.842;2023-09-12T00:25:42;22.54;78.04
66035;HTU21D;52805;51.074;5.842;2023-09-12T00:28:07;22.50;79.05
66035;HTU21D;52805;51.074;5.842;2023-09-12T00:30:33;22.46;79.90
66035;HTU21D;52805;51.074;5.842;2023-09-12T00:32:59;22.41;80.60
66035;HTU21D;52805;51.074;5.842;2023-09-12T00:35:24;22.37;81.67
66035;HTU21D;52805;51.074;5.842;2023-09-12T00:37:50;22.35;82.23
66035;HTU21D;52805;51.074;5.842;2023-09-12T00:40:16;22.32;82.69
66035;HTU21D;52805;51.074;5.842;2023-09-12T00:42:41;22.28;83.04
66035;HTU21D;52805;51.074;5.842;2023-09-12T00:45:08;22.25;83.97
66035;HTU21D;52805;51.074;5.842;2023-09-12T00:47:35;22.24;84.68
66035;HTU21D;52805;51.074;5.842;2023-09-12T00:50:02;22.25;85.36
66035;HTU21D;52805;51.074;5.842;2023-09-12T00:52:33;22.24;86.32
66035;HTU21D;52805;51.074;5.842;2023-09-12T00:55:00;22.22;86.78
66035;HTU21D;52805;51.074;5.842;2023-09-12T00:57:28;22.21;87.12
66035;HTU21D;52805;51.074;5.842;2023-09-12T00:59:56;22.17;87.42
66035;HTU21D;52805;51.074;5.842;2023-09-12T01:02:24;22.13;87.95
66035;HTU21D;52805;51.074;5.842;2023-09-12T01:04:51;22.11;88.45
66035;HTU21D;52805;51.074;5.842;2023-09-12T01:07:17;22.07;89.18
66035;HTU21D;52805;51.074;5.842;2023-09-12T01:09:43;22.05;89.79
66035;HTU21D;52805;51.074;5.842;2023-09-12T01:12:09;22.04;90.81
66035;HTU21D;52805;51.074;5.842;2023-09-12T01:14:40;22.05;91.37
66035;HTU21D;52805;51.074;5.842;2023-09-12T01:17:06;22.09;91.24
66035;HTU21D;52805;51.074;5.842;2023-09-12T01:19:33;22.10;90.58
66035;HTU21D;52805;51.074;5.842;2023-09-12T01:25:09;22.09;90.83
66035;HTU21D;52805;51.074;5.842;2023-09-12T01:27:42;22.07;91.91
66035;HTU21D;52805;51.074;5.842;2023-09-12T01:30:10;22.09;93.08
66035;HTU21D;52805;51.074;5.842;2023-09-12T01:32:38;22.10;93.16
66035;HTU21D;52805;51.074;5.842;2023-09-12T01:35:05;22.10;93.39
66035;HTU21D;52805;51.074;5.842;2023-09-12T01:37:31;22.10;93.49
66035;HTU21D;52805;51.074;5.842;2023-09-12T01:39:58;22.10;93.91
66035;HTU21D;52805;51.074;5.842;2023-09-12T01:42:28;22.11;93.84
66035;HTU21D;52805;51.074;5.842;2023-09-12T01:44:56;22.08;93.26
66035;HTU21D;52805;51.074;5.842;2023-09-12T01:47:25;22.06;93.69
66035;HTU21D;52805;51.074;5.842;2023-09-12T01:49:56;22.05;94.24
66035;HTU21D;52805;51.074;5.842;2023-09-12T01:52:25;22.01;94.58
66035;HTU21D;52805;51.074;5.842;2023-09-12T01:54:52;21.99;95.19
66035;HTU21D;52805;51.074;5.842;2023-09-12T01:57:19;22.03;95.15
66035;HTU21D;52805;51.074;5.842;2023-09-12T01:59:49;21.99;94.94
66035;HTU21D;52805;51.074;5.842;2023-09-12T02:02:15;21.98;95.23
66035;HTU21D;52805;51.074;5.842;2023-09-12T02:04:42;21.98;95.74
66035;HTU21D;52805;51.074;5.842;2023-09-12T02:07:11;21.96;96.68
66035;HTU21D;52805;51.074;5.842;2023-09-12T02:09:37;21.95;97.53
66035;HTU21D;52805;51.074;5.842;2023-09-12T02:12:04;21.96;98.08
66035;HTU21D;52805;51.074;5.842;2023-09-12T02:14:29;21.96;98.19
66035;HTU21D;52805;51.074;5.842;2023-09-12T02:16:55;21.95;98.23
66035;HTU21D;52805;51.074;5.842;2023-09-12T02:19:21;21.94;98.73
66035;HTU21D;52805;51.074;5.842;2023-09-12T02:21:46;21.94;98.67
66035;HTU21D;52805;51.074;5.842;2023-09-12T02:24:12;21.92;99.26
66035;HTU21D;52805;51.074;5.842;2023-09-12T02:26:38;21.91;99.93
66035;HTU21D;52805;51.074;5.842;2023-09-12T02:29:04;21.89;100.31
66035;HTU21D;52805;51.074;5.842;2023-09-12T02:31:31;21.84;100.57
66035;HTU21D;52805;51.074;5.842;2023-09-12T02:33:57;21.82;100.96
66035;HTU21D;52805;51.074;5.842;2023-09-12T02:36:23;21.80;102.36
66035;HTU21D;52805;51.074;5.842;2023-09-12T02:38:48;21.78;102.91
66035;HTU21D;52805;51.074;5.842;2023-09-12T02:41:14;21.79;102.79
66035;HTU21D;52805;51.074;5.842;2023-09-12T02:43:40;21.77;103.05
66035;HTU21D;52805;51.074;5.842;2023-09-12T02:46:05;21.76;103.24
66035;HTU21D;52805;51.074;5.842;2023-09-12T02:48:31;21.72;103.69
66035;HTU21D;52805;51.074;5.842;2023-09-12T02:50:57;21.69;103.82
66035;HTU21D;52805;51.074;5.842;2023-09-12T02:53:22;21.65;104.50
66035;HTU21D;52805;51.074;5.842;2023-09-12T02:55:48;21.66;106.05
66035;HTU21D;52805;51.074;5.842;2023-09-12T02:58:14;21.64;106.93
66035;HTU21D;52805;51.074;5.842;2023-09-12T03:00:40;21.65;107.57
66035;HTU21D;52805;51.074;5.842;2023-09-12T03:03:08;21.63;108.17
66035;HTU21D;52805;51.074;5.842;2023-09-12T03:05:35;21.61;108.06
66035;HTU21D;52805;51.074;5.842;2023-09-12T03:08:01;21.59;108.10
66035;HTU21D;52805;51.074;5.842;2023-09-12T03:10:28;21.55;108.19
66035;HTU21D;52805;51.074;5.842;2023-09-12T03:12:53;21.53;108.48
66035;HTU21D;52805;51.074;5.842;2023-09-12T03:15:19;21.52;108.34
66035;HTU21D;52805;51.074;5.842;2023-09-12T03:17:45;21.51;108.74
66035;HTU21D;52805;51.074;5.842;2023-09-12T03:20:11;21.51;108.61
66035;HTU21D;52805;51.074;5.842;2023-09-12T03:22:37;21.52;108.94
66035;HTU21D;52805;51.074;5.842;2023-09-12T03:25:03;21.54;109.74
66035;HTU21D;52805;51.074;5.842;2023-09-12T03:27:29;21.57;110.01
66035;HTU21D;52805;51.074;5.842;2023-09-12T03:29:56;21.58;110.31
66035;HTU21D;52805;51.074;5.842;2023-09-12T03:32:21;21.60;110.62
66035;HTU21D;52805;51.074;5.842;2023-09-12T03:34:47;21.61;110.34
66035;HTU21D;52805;51.074;5.842;2023-09-12T03:37:13;21.61;109.80
66035;HTU21D;52805;51.074;5.842;2023-09-12T03:39:38;21.61;109.94
66035;HTU21D;52805;51.074;5.842;2023-09-12T03:42:04;21.61;110.00
66035;HTU21D;52805;51.074;5.842;2023-09-12T03:44:30;21.60;110.71
66035;HTU21D;52805;51.074;5.842;2023-09-12T03:46:56;21.61;111.20
66035;HTU21D;52805;51.074;5.842;2023-09-12T03:49:23;21.62;111.39
66035;HTU21D;52805;51.074;5.842;2023-09-12T03:51:49;21.62;110.87
66035;HTU21D;52805;51.074;5.842;2023-09-12T03:54:15;21.61;111.61
66035;HTU21D;52805;51.074;5.842;2023-09-12T03:56:41;21.63;112.00
66035;HTU21D;52805;51.074;5.842;2023-09-12T03:59:06;21.61;112.64
66035;HTU21D;52805;51.074;5.842;2023-09-12T04:01:32;21.61;111.95
66035;HTU21D;52805;51.074;5.842;2023-09-12T04:03:58;21.59;111.75
66035;HTU21D;52805;51.074;5.842;2023-09-12T04:06:24;21.59;112.58
66035;HTU21D;52805;51.074;5.842;2023-09-12T04:08:50;21.59;113.25
66035;HTU21D;52805;51.074;5.842;2023-09-12T04:11:16;21.60;114.13
66035;HTU21D;52805;51.074;5.842;2023-09-12T04:13:41;21.59;114.57
66035;HTU21D;52805;51.074;5.842;2023-09-12T04:16:07;21.59;115.61
66035;HTU21D;52805;51.074;5.842;2023-09-12T04:18:33;21.59;116.54
66035;HTU21D;52805;51.074;5.842;2023-09-12T04:20:58;21.60;116.15
66035;HTU21D;52805;51.074;5.842;2023-09-12T04:23:25;21.59;115.55
66035;HTU21D;52805;51.074;5.842;2023-09-12T04:25:51;21.59;115.60
66035;HTU21D;52805;51.074;5.842;2023-09-12T04:28:17;21.57;115.91
66035;HTU21D;52805;51.074;5.842;2023-09-12T04:30:42;21.57;116.40
66035;HTU21D;52805;51.074;5.842;2023-09-12T04:33:08;21.55;116.92
66035;HTU21D;52805;51.074;5.842;2023-09-12T04:35:34;21.54;117.63
66035;HTU21D;52805;51.074;5.842;2023-09-12T04:38:01;21.55;117.82
66035;HTU21D;52805;51.074;5.842;2023-09-12T04:40:27;21.53;116.63
66035;HTU21D;52805;51.074;5.842;2023-09-12T04:42:53;21.50;116.19
66035;HTU21D;52805;51.074;5.842;2023-09-12T04:45:19;21.46;116.22
66035;HTU21D;52805;51.074;5.842;2023-09-12T04:47:45;21.45;115.91
66035;HTU21D;52805;51.074;5.842;2023-09-12T04:50:10;21.44;116.92
66035;HTU21D;52805;51.074;5.842;2023-09-12T04:52:39;21.42;117.33
66035;HTU21D;52805;51.074;5.842;2023-09-12T04:55:05;21.39;118.34
66035;HTU21D;52805;51.074;5.842;2023-09-12T04:57:31;21.39;118.99
66035;HTU21D;52805;51.074;5.842;2023-09-12T04:59:58;21.37;118.66
66035;HTU21D;52805;51.074;5.842;2023-09-12T05:02:24;21.34;118.99
66035;HTU21D;52805;51.074;5.842;2023-09-12T05:04:51;21.32;118.99
66035;HTU21D;52805;51.074;5.842;2023-09-12T05:07:17;21.31;118.99
66035;HTU21D;52805;51.074;5.842;2023-09-12T05:09:42;21.28;118.99
66035;HTU21D;52805;51.074;5.842;2023-09-12T05:12:08;21.27;118.99
66035;HTU21D;52805;51.074;5.842;2023-09-12T05:14:34;21.27;118.99
66035;HTU21D;52805;51.074;5.842;2023-09-12T05:17:00;21.28;118.99
66035;HTU21D;52805;51.074;5.842;2023-09-12T05:19:30;21.27;118.99
66035;HTU21D;52805;51.074;5.842;2023-09-12T05:21:55;21.27;118.99
66035;HTU21D;52805;51.074;5.842;2023-09-12T05:24:21;21.27;118.99
66035;HTU21D;52805;51.074;5.842;2023-09-12T05:26:47;21.24;118.99
66035;HTU21D;52805;51.074;5.842;2023-09-12T05:29:15;21.21;118.99
66035;HTU21D;52805;51.074;5.842;2023-09-12T05:31:40;21.22;118.99
66035;HTU21D;52805;51.074;5.842;2023-09-12T05:34:06;21.23;118.99
66035;HTU21D;52805;51.074;5.842;2023-09-12T05:36:32;21.24;118.99
66035;HTU21D;52805;51.074;5.842;2023-09-12T05:38:58;21.25;118.99
66035;HTU21D;52805;51.074;5.842;2023-09-12T05:41:24;21.28;118.99
66035;HTU21D;52805;51.074;5.842;2023-09-12T05:43:49;21.28;118.99
66035;HTU21D;52805;51.074;5.842;2023-09-12T05:46:15;21.27;118.99
66035;HTU21D;52805;51.074;5.842;2023-09-12T05:48:41;21.28;118.99
66035;HTU21D;52805;51.074;5.842;2023-09-12T05:51:06;21.27;118.99
66035;HTU21D;52805;51.074;5.842;2023-09-12T05:53:32;21.28;118.99
66035;HTU21D;52805;51.074;5.842;2023-09-12T05:55:58;21.31;118.99
66035;HTU21D;52805;51.074;5.842;2023-09-12T05:58:24;21.30;118.99
66035;HTU21D;52805;51.074;5.842;2023-09-12T06:00:49;21.28;118.99
66035;HTU21D;52805;51.074;5.842;2023-09-12T06:03:15;21.27;118.99
66035;HTU21D;52805;51.074;5.842;2023-09-12T06:05:41;21.25;118.99
66035;HTU21D;52805;51.074;5.842;2023-09-12T06:08:07;21.25;118.99
66035;HTU21D;52805;51.074;5.842;2023-09-12T06:10:33;21.25;118.99
66035;HTU21D;52805;51.074;5.842;2023-09-12T06:12:59;21.25;118.99
66035;HTU21D;52805;51.074;5.842;2023-09-12T06:15:25;21.27;118.99
66035;HTU21D;52805;51.074;5.842;2023-09-12T06:17:50;21.28;118.99
66035;HTU21D;52805;51.074;5.842;2023-09-12T06:20:16;21.25;118.99
66035;HTU21D;52805;51.074;5.842;2023-09-12T06:22:42;21.27;118.99
66035;HTU21D;52805;51.074;5.842;2023-09-12T06:25:08;21.30;118.99
66035;HTU21D;52805;51.074;5.842;2023-09-12T06:27:34;21.25;118.99
66035;HTU21D;52805;51.074;5.842;2023-09-12T06:30:00;21.27;118.99
66035;HTU21D;52805;51.074;5.842;2023-09-12T06:32:26;21.29;118.99
66035;HTU21D;52805;51.074;5.842;2023-09-12T06:34:52;21.29;118.99
66035;HTU21D;52805;51.074;5.842;2023-09-12T06:37:17;21.31;118.99
66035;HTU21D;52805;51.074;5.842;2023-09-12T06:39:43;21.33;118.99
66035;HTU21D;52805;51.074;5.842;2023-09-12T06:42:09;21.32;118.99
66035;HTU21D;52805;51.074;5.842;2023-09-12T06:44:35;21.30;118.99
66035;HTU21D;52805;51.074;5.842;2023-09-12T06:47:04;21.31;118.99
66035;HTU21D;52805;51.074;5.842;2023-09-12T06:49:30;21.31;118.99
66035;HTU21D;52805;51.074;5.842;2023-09-12T06:51:57;21.32;118.99
66035;HTU21D;52805;51.074;5.842;2023-09-12T06:54:23;21.35;118.99
66035;HTU21D;52805;51.074;5.842;2023-09-12T06:56:49;21.35;118.99
66035;HTU21D;52805;51.074;5.842;2023-09-12T06:59:14;21.38;118.99
66035;HTU21D;52805;51.074;5.842;2023-09-12T07:01:40;21.40;118.99
66035;HTU21D;52805;51.074;5.842;2023-09-12T07:04:06;21.40;118.99
66035;HTU21D;52805;51.074;5.842;2023-09-12T07:06:31;21.45;118.99
66035;HTU21D;52805;51.074;5.842;2023-09-12T07:08:58;21.47;118.99
66035;HTU21D;52805;51.074;5.842;2023-09-12T07:11:24;21.52;118.99
66035;HTU21D;52805;51.074;5.842;2023-09-12T07:13:49;21.58;118.99
66035;HTU21D;52805;51.074;5.842;2023-09-12T07:16:15;21.59;118.99
66035;HTU21D;52805;51.074;5.842;2023-09-12T07:18:41;21.64;118.99
66035;HTU21D;52805;51.074;5.842;2023-09-12T07:21:07;21.68;118.99
66035;HTU21D;52805;51.074;5.842;2023-09-12T07:23:33;21.72;118.99
66035;HTU21D;52805;51.074;5.842;2023-09-12T07:25:59;21.75;118.99
66035;HTU21D;52805;51.074;5.842;2023-09-12T07:28:26;21.80;118.99
66035;HTU21D;52805;51.074;5.842;2023-09-12T07:30:53;21.87;118.99
66035;HTU21D;52805;51.074;5.842;2023-09-12T07:33:19;21.90;118.99
66035;HTU21D;52805;51.074;5.842;2023-09-12T07:35:46;21.95;118.99
66035;HTU21D;52805;51.074;5.842;2023-09-12T07:38:13;21.99;118.99
66035;HTU21D;52805;51.074;5.842;2023-09-12T07:40:41;22.01;118.99
66035;HTU21D;52805;51.074;5.842;2023-09-12T07:43:07;22.03;118.99
66035;HTU21D;52805;51.074;5.842;2023-09-12T07:45:33;22.05;118.99
66035;HTU21D;52805;51.074;5.842;2023-09-12T07:48:07;22.07;118.99
66035;HTU21D;52805;51.074;5.842;2023-09-12T07:50:33;22.09;118.99
66035;HTU21D;52805;51.074;5.842;2023-09-12T07:52:59;22.14;118.99
66035;HTU21D;52805;51.074;5.842;2023-09-12T07:55:24;22.19;118.99
66035;HTU21D;52805;51.074;5.842;2023-09-12T07:57:50;22.24;118.99
66035;HTU21D;52805;51.074;5.842;2023-09-12T08:00:16;22.25;118.99
66035;HTU21D;52805;51.074;5.842;2023-09-12T08:02:42;22.28;118.99
66035;HTU21D;52805;51.074;5.842;2023-09-12T08:05:08;22.29;118.99
66035;HTU21D;52805;51.074;5.842;2023-09-12T08:07:35;22.33;118.99
66035;HTU21D;52805;51.074;5.842;2023-09-12T08:10:01;22.34;118.99
66035;HTU21D;52805;51.074;5.842;2023-09-12T08:12:28;22.37;118.99
66035;HTU21D;52805;51.074;5.842;2023-09-12T08:14:54;22.39;118.99
66035;HTU21D;52805;51.074;5.842;2023-09-12T08:17:21;22.46;118.99
66035;HTU21D;52805;51.074;5.842;2023-09-12T08:19:47;22.49;118.99
66035;HTU21D;52805;51.074;5.842;2023-09-12T08:22:13;22.52;116.60
66035;HTU21D;52805;51.074;5.842;2023-09-12T08:24:39;22.56;115.44
66035;HTU21D;52805;51.074;5.842;2023-09-12T08:27:05;22.60;114.01
66035;HTU21D;52805;51.074;5.842;2023-09-12T08:29:32;22.65;112.14
66035;HTU21D;52805;51.074;5.842;2023-09-12T08:31:58;22.72;110.96
66035;HTU21D;52805;51.074;5.842;2023-09-12T08:34:24;22.76;110.49
66035;HTU21D;52805;51.074;5.842;2023-09-12T08:36:50;22.80;108.47
66035;HTU21D;52805;51.074;5.842;2023-09-12T08:39:23;22.84;107.02
66035;HTU21D;52805;51.074;5.842;2023-09-12T08:41:49;22.85;106.63
66035;HTU21D;52805;51.074;5.842;2023-09-12T08:44:15;22.84;107.67
66035;HTU21D;52805;51.074;5.842;2023-09-12T08:46:42;22.86;106.54
66035;HTU21D;52805;51.074;5.842;2023-09-12T08:49:08;22.88;106.10
66035;HTU21D;52805;51.074;5.842;2023-09-12T08:51:38;22.94;105.68
66035;HTU21D;52805;51.074;5.842;2023-09-12T08:54:05;23.01;105.76
66035;HTU21D;52805;51.074;5.842;2023-09-12T08:56:34;23.07;105.26
66035;HTU21D;52805;51.074;5.842;2023-09-12T08:59:01;23.15;99.23
66035;HTU21D;52805;51.074;5.842;2023-09-12T09:01:30;23.22;100.84
66035;HTU21D;52805;51.074;5.842;2023-09-12T09:03:57;23.25;98.74
66035;HTU21D;52805;51.074;5.842;2023-09-12T09:06:23;23.31;95.31
66035;HTU21D;52805;51.074;5.842;2023-09-12T09:08:50;23.37;93.11
66035;HTU21D;52805;51.074;5.842;2023-09-12T09:11:16;23.42;92.05
66035;HTU21D;52805;51.074;5.842;2023-09-12T09:13:42;23.47;90.74
66035;HTU21D;52805;51.074;5.842;2023-09-12T09:16:18;23.52;89.34
66035;HTU21D;52805;51.074;5.842;2023-09-12T09:19:03;23.55;88.86
66035;HTU21D;52805;51.074;5.842;2023-09-12T09:21:33;23.58;88.70
66035;HTU21D;52805;51.074;5.842;2023-09-12T09:24:07;23.65;88.13
66035;HTU21D;52805;51.074;5.842;2023-09-12T09:26:47;23.69;85.71
66035;HTU21D;52805;51.074;5.842;2023-09-12T09:29:22;23.77;83.52
66035;HTU21D;52805;51.074;5.842;2023-09-12T09:31:51;23.82;83.07
66035;HTU21D;52805;51.074;5.842;2023-09-12T09:34:21;23.86;82.73
66035;HTU21D;52805;51.074;5.842;2023-09-12T09:36:48;23.90;83.65
66035;HTU21D;52805;51.074;5.842;2023-09-12T09:39:17;23.94;84.10
66035;HTU21D;52805;51.074;5.842;2023-09-12T09:41:47;23.96;85.17
66035;HTU21D;52805;51.074;5.842;2023-09-12T09:44:13;24.02;84.61
66035;HTU21D;52805;51.074;5.842;2023-09-12T09:46:43;24.04;82.17
66035;HTU21D;52805;51.074;5.842;2023-09-12T09:49:16;24.08;81.15
66035;HTU21D;52805;51.074;5.842;2023-09-12T09:51:44;24.13;80.02
66035;HTU21D;52805;51.074;5.842;2023-09-12T09:54:13;24.20;79.21
66035;HTU21D;52805;51.074;5.842;2023-09-12T09:59:14;24.38;78.48
66035;HTU21D;52805;51.074;5.842;2023-09-12T10:01:44;24.49;78.34
66035;HTU21D;52805;51.074;5.842;2023-09-12T10:04:11;24.61;79.11
66035;HTU21D;52805;51.074;5.842;2023-09-12T10:06:38;24.73;79.56
66035;HTU21D;52805;51.074;5.842;2023-09-12T10:09:11;24.89;79.37
66035;HTU21D;52805;51.074;5.842;2023-09-12T10:11:38;25.07;76.41
66035;HTU21D;52805;51.074;5.842;2023-09-12T10:14:06;25.22;74.11
66035;HTU21D;52805;51.074;5.842;2023-09-12T10:16:35;25.37;73.83
66035;HTU21D;52805;51.074;5.842;2023-09-12T10:19:21;25.47;69.36
66035;HTU21D;52805;51.074;5.842;2023-09-12T10:21:54;25.54;65.84
66035;HTU21D;52805;51.074;5.842;2023-09-12T10:24:22;25.64;63.56
66035;HTU21D;52805;51.074;5.842;2023-09-12T10:26:50;25.72;64.01
66035;HTU21D;52805;51.074;5.842;2023-09-12T10:29:17;25.80;62.66
66035;HTU21D;52805;51.074;5.842;2023-09-12T10:31:43;25.89;60.10
66035;HTU21D;52805;51.074;5.842;2023-09-12T10:34:11;25.95;57.82
66035;HTU21D;52805;51.074;5.842;2023-09-12T10:36:42;26.05;57.32
66035;HTU21D;52805;51.074;5.842;2023-09-12T10:39:10;26.07;56.10
66035;HTU21D;52805;51.074;5.842;2023-09-12T10:41:39;26.07;56.17
66035;HTU21D;52805;51.074;5.842;2023-09-12T10:44:16;26.09;55.15
66035;HTU21D;52805;51.074;5.842;2023-09-12T10:46:44;26.10;54.47
66035;HTU21D;52805;51.074;5.842;2023-09-12T10:49:12;26.04;54.61
66035;HTU21D;52805;51.074;5.842;2023-09-12T10:51:44;26.02;55.51
66035;HTU21D;52805;51.074;5.842;2023-09-12T10:54:15;26.03;55.12
66035;HTU21D;52805;51.074;5.842;2023-09-12T10:56:41;26.07;55.20
66035;HTU21D;52805;51.074;5.842;2023-09-12T11:01:36;26.24;54.48
66035;HTU21D;52805;51.074;5.842;2023-09-12T11:04:29;26.32;52.34
66035;HTU21D;52805;51.074;5.842;2023-09-12T11:06:55;26.35;52.12
66035;HTU21D;52805;51.074;5.842;2023-09-12T11:09:24;26.43;52.46
66035;HTU21D;52805;51.074;5.842;2023-09-12T11:12:03;26.57;51.99
66035;HTU21D;52805;51.074;5.842;2023-09-12T11:14:30;26.64;51.53
66035;HTU21D;52805;51.074;5.842;2023-09-12T11:19:44;26.72;48.48
66035;HTU21D;52805;51.074;5.842;2023-09-12T11:22:27;26.78;47.30
66035;HTU21D;52805;51.074;5.842;2023-09-12T11:24:54;26.91;47.14
66035;HTU21D;52805;51.074;5.842;2023-09-12T11:27:22;27.05;45.76
66035;HTU21D;52805;51.074;5.842;2023-09-12T11:29:48;27.24;44.63
66035;HTU21D;52805;51.074;5.842;2023-09-12T11:32:27;27.39;42.61
66035;HTU21D;52805;51.074;5.842;2023-09-12T11:34:55;27.49;41.25
66035;HTU21D;52805;51.074;5.842;2023-09-12T11:37:23;27.51;40.06
66035;HTU21D;52805;51.074;5.842;2023-09-12T11:39:50;27.50;38.72
66035;HTU21D;52805;51.074;5.842;2023-09-12T11:42:18;27.46;38.53
66035;HTU21D;52805;51.074;5.842;2023-09-12T11:44:44;27.41;38.11
66035;HTU21D;52805;51.074;5.842;2023-09-12T11:47:12;27.35;38.08
66035;HTU21D;52805;51.074;5.842;2023-09-12T11:49:40;27.29;37.79
66035;HTU21D;52805;51.074;5.842;2023-09-12T11:52:14;27.21;38.33
66035;HTU21D;52805;51.074;5.842;2023-09-12T11:54:43;27.16;38.64
66035;HTU21D;52805;51.074;5.842;2023-09-12T11:57:12;27.12;38.11
66035;HTU21D;52805;51.074;5.842;2023-09-12T11:59:41;27.06;38.52
66035;HTU21D;52805;51.074;5.842;2023-09-12T12:02:08;27.07;39.36
66035;HTU21D;52805;51.074;5.842;2023-09-12T12:04:34;27.16;40.00
66035;HTU21D;52805;51.074;5.842;2023-09-12T12:07:01;27.23;38.75
66035;HTU21D;52805;51.074;5.842;2023-09-12T12:09:27;27.37;38.06
66035;HTU21D;52805;51.074;5.842;2023-09-12T12:11:53;27.45;37.57
66035;HTU21D;52805;51.074;5.842;2023-09-12T12:14:19;27.55;37.45
66035;HTU21D;52805;51.074;5.842;2023-09-12T12:16:47;27.71;36.72
66035;HTU21D;52805;51.074;5.842;2023-09-12T12:19:14;27.87;35.07
66035;HTU21D;52805;51.074;5.842;2023-09-12T12:21:41;27.95;33.31
66035;HTU21D;52805;51.074;5.842;2023-09-12T12:24:10;27.99;32.34
66035;HTU21D;52805;51.074;5.842;2023-09-12T12:26:36;28.02;31.71
66035;HTU21D;52805;51.074;5.842;2023-09-12T12:29:04;28.10;31.12
66035;HTU21D;52805;51.074;5.842;2023-09-12T12:31:30;28.15;29.59
66035;HTU21D;52805;51.074;5.842;2023-09-12T12:33:57;28.19;29.80
66035;HTU21D;52805;51.074;5.842;2023-09-12T12:36:25;28.17;29.57
66035;HTU21D;52805;51.074;5.842;2023-09-12T12:38:51;28.10;28.65
66035;HTU21D;52805;51.074;5.842;2023-09-12T12:41:29;27.91;28.61
66035;HTU21D;52805;51.074;5.842;2023-09-12T12:43:57;27.73;28.38
66035;HTU21D;52805;51.074;5.842;2023-09-12T12:46:27;27.56;28.60
66035;HTU21D;52805;51.074;5.842;2023-09-12T12:48:54;27.46;29.16
66035;HTU21D;52805;51.074;5.842;2023-09-12T12:51:25;27.50;28.83
66035;HTU21D;52805;51.074;5.842;2023-09-12T12:54:02;27.54;28.88
66035;HTU21D;52805;51.074;5.842;2023-09-12T12:56:29;27.61;28.30
66035;HTU21D;52805;51.074;5.842;2023-09-12T12:58:56;27.70;28.20
66035;HTU21D;52805;51.074;5.842;2023-09-12T13:01:23;27.80;27.42
66035;HTU21D;52805;51.074;5.842;2023-09-12T13:03:49;27.89;26.81
66035;HTU21D;52805;51.074;5.842;2023-09-12T13:06:16;27.97;27.13
66035;HTU21D;52805;51.074;5.842;2023-09-12T13:08:45;28.05;26.40
66035;HTU21D;52805;51.074;5.842;2023-09-12T13:11:13;28.12;25.89
66035;HTU21D;52805;51.074;5.842;2023-09-12T13:13:40;28.12;25.20
66035;HTU21D;52805;51.074;5.842;2023-09-12T13:16:07;28.14;24.77
66035;HTU21D;52805;51.074;5.842;2023-09-12T13:18:38;28.15;23.48
66035;HTU21D;52805;51.074;5.842;2023-09-12T13:21:05;28.16;22.98
66035;HTU21D;52805;51.074;5.842;2023-09-12T13:23:34;28.19;23.08
66035;HTU21D;52805;51.074;5.842;2023-09-12T13:25:59;28.20;22.34
66035;HTU21D;52805;51.074;5.842;2023-09-12T13:28:25;28.26;21.87
66035;HTU21D;52805;51.074;5.842;2023-09-12T13:30:54;28.28;21.31
66035;HTU21D;52805;51.074;5.842;2023-09-12T13:33:20;28.32;21.43
66035;HTU21D;52805;51.074;5.842;2023-09-12T13:35:48;28.37;21.23
66035;HTU21D;52805;51.074;5.842;2023-09-12T13:38:13;28.47;20.94
66035;HTU21D;52805;51.074;5.842;2023-09-12T13:40:42;28.45;21.08
66035;HTU21D;52805;51.074;5.842;2023-09-12T13:43:08;28.49;20.37
66035;HTU21D;52805;51.074;5.842;2023-09-12T13:45:35;28.53;20.07
66035;HTU21D;52805;51.074;5.842;2023-09-12T13:48:02;28.47;19.76
66035;HTU21D;52805;51.074;5.842;2023-09-12T13:50:29;28.45;20.09
66035;HTU21D;52805;51.074;5.842;2023-09-12T13:52:58;28.49;19.90
66035;HTU21D;52805;51.074;5.842;2023-09-12T13:55:25;28.55;19.45
66035;HTU21D;52805;51.074;5.842;2023-09-12T13:57:51;28.57;18.96
66035;HTU21D;52805;51.074;5.842;2023-09-12T14:00:17;28.59;18.67
66035;HTU21D;52805;51.074;5.842;2023-09-12T14:02:43;28.64;18.52
66035;HTU21D;52805;51.074;5.842;2023-09-12T14:05:11;28.71;18.13
66035;HTU21D;52805;51.074;5.842;2023-09-12T14:07:37;28.77;17.82
66035;HTU21D;52805;51.074;5.842;2023-09-12T14:10:06;28.83;17.25
66035;HTU21D;52805;51.074;5.842;2023-09-12T14:12:32;28.88;17.31
66035;HTU21D;52805;51.074;5.842;2023-09-12T14:14:58;28.93;16.43
66035;HTU21D;52805;51.074;5.842;2023-09-12T14:17:23;28.97;15.92
66035;HTU21D;52805;51.074;5.842;2023-09-12T14:19:49;28.99;15.43
66035;HTU21D;52805;51.074;5.842;2023-09-12T14:22:15;29.04;15.39
66035;HTU21D;52805;51.074;5.842;2023-09-12T14:24:41;29.11;15.91
66035;HTU21D;52805;51.074;5.842;2023-09-12T14:27:06;29.20;16.55
66035;HTU21D;52805;51.074;5.842;2023-09-12T14:29:32;29.24;14.90
66035;HTU21D;52805;51.074;5.842;2023-09-12T14:31:58;29.20;15.03
66035;HTU21D;52805;51.074;5.842;2023-09-12T14:34:27;29.14;14.22
66035;HTU21D;52805;51.074;5.842;2023-09-12T14:36:56;29.08;14.46
66035;HTU21D;52805;51.074;5.842;2023-09-12T14:39:23;29.07;14.74
66035;HTU21D;52805;51.074;5.842;2023-09-12T14:41:50;29.08;14.90
66035;HTU21D;52805;51.074;5.842;2023-09-12T14:44:20;29.07;14.39
66035;HTU21D;52805;51.074;5.842;2023-09-12T14:46:47;29.07;13.87
66035;HTU21D;52805;51.074;5.842;2023-09-12T14:49:13;29.06;13.39
66035;HTU21D;52805;51.074;5.842;2023-09-12T14:51:39;29.05;13.14
66035;HTU21D;52805;51.074;5.842;2023-09-12T14:54:06;29.12;12.65
66035;HTU21D;52805;51.074;5.842;2023-09-12T14:56:33;29.15;12.77
66035;HTU21D;52805;51.074;5.842;2023-09-12T14:59:00;29.27;12.33
66035;HTU21D;52805;51.074;5.842;2023-09-12T15:01:25;29.32;12.10
66035;HTU21D;52805;51.074;5.842;2023-09-12T15:03:52;29.35;11.64
66035;HTU21D;52805;51.074;5.842;2023-09-12T15:06:19;29.30;11.52
66035;HTU21D;52805;51.074;5.842;2023-09-12T15:08:44;29.23;11.40
66035;HTU21D;52805;51.074;5.842;2023-09-12T15:11:10;29.19;11.37
66035;HTU21D;52805;51.074;5.842;2023-09-12T15:13:36;29.19;11.30
66035;HTU21D;52805;51.074;5.842;2023-09-12T15:16:03;29.13;11.40
66035;HTU21D;52805;51.074;5.842;2023-09-12T15:18:30;29.02;11.64
66035;HTU21D;52805;51.074;5.842;2023-09-12T15:20:55;28.90;12.42